createdAt,value
2023-03-16T00:00:55.645Z,1.60
2023-03-16T00:03:22.572Z,1.60
2023-03-16T00:05:50.889Z,1.60
2023-03-16T00:08:18.433Z,1.60
2023-03-16T00:10:48.090Z,1.60
2023-03-16T00:13:15.724Z,1.60
2023-03-16T00:15:52.691Z,1.50
2023-03-16T00:18:19.520Z,1.50
2023-03-16T00:20:50.305Z,1.50
2023-03-16T00:23:17.107Z,1.60
2023-03-16T00:25:43.841Z,1.50
2023-03-16T00:28:14.033Z,1.60
2023-03-16T00:30:40.950Z,1.50
2023-03-16T00:33:08.529Z,1.50
2023-03-16T00:35:35.869Z,1.50
2023-03-16T00:38:03.957Z,1.60
2023-03-16T00:40:30.780Z,1.50
2023-03-16T00:42:57.665Z,1.60
2023-03-16T00:45:25.062Z,1.60
2023-03-16T00:47:54.200Z,1.60
2023-03-16T00:50:22.371Z,1.70
2023-03-16T00:52:49.237Z,1.70
2023-03-16T00:55:16.148Z,1.70
2023-03-16T00:57:44.907Z,1.70
2023-03-16T01:00:15.066Z,1.70
2023-03-16T01:02:42.152Z,1.70
2023-03-16T01:05:09.346Z,1.70
2023-03-16T01:07:36.473Z,1.70
2023-03-16T01:10:04.216Z,1.70
2023-03-16T01:12:30.972Z,1.70
2023-03-16T01:14:58.069Z,1.70
2023-03-16T01:17:26.781Z,1.70
2023-03-16T01:19:53.843Z,1.70
2023-03-16T01:22:21.461Z,1.60
2023-03-16T01:24:48.372Z,1.60
2023-03-16T01:27:15.144Z,1.60
2023-03-16T01:29:43.634Z,1.50
2023-03-16T01:32:10.872Z,1.60
2023-03-16T01:34:37.650Z,1.50
2023-03-16T01:37:05.759Z,1.40
2023-03-16T01:39:51.302Z,1.40
2023-03-16T01:42:18.350Z,1.40
2023-03-16T01:44:56.142Z,1.40
2023-03-16T01:47:27.905Z,1.30
2023-03-16T01:49:56.067Z,1.30
2023-03-16T01:52:28.821Z,1.30
2023-03-16T01:55:00.663Z,1.40
2023-03-16T01:57:30.559Z,1.30
2023-03-16T01:59:59.058Z,1.30
2023-03-16T02:02:29.605Z,1.30
2023-03-16T02:05:00.029Z,1.30
2023-03-16T02:07:28.600Z,1.40
2023-03-16T02:09:57.552Z,1.30
2023-03-16T02:12:24.543Z,1.30
2023-03-16T02:14:54.415Z,1.30
2023-03-16T02:17:26.702Z,1.30
2023-03-16T02:20:07.345Z,1.30
2023-03-16T02:22:37.721Z,1.30
2023-03-16T02:25:04.729Z,1.40
2023-03-16T02:27:36.494Z,1.40
2023-03-16T02:30:08.320Z,1.50
2023-03-16T02:32:44.172Z,1.40
2023-03-16T02:35:12.921Z,1.40
2023-03-16T02:37:41.805Z,1.50
2023-03-16T02:40:27.806Z,1.40
2023-03-16T02:43:02.736Z,1.40
2023-03-16T02:45:34.172Z,1.30
2023-03-16T02:48:03.914Z,1.30
2023-03-16T02:50:30.826Z,1.30
2023-03-16T02:52:57.907Z,1.40
2023-03-16T02:55:24.817Z,1.40
2023-03-16T02:57:52.386Z,1.40
2023-03-16T03:00:21.983Z,1.40
2023-03-16T03:02:52.524Z,1.50
2023-03-16T03:05:23.504Z,1.50
2023-03-16T03:07:51.184Z,1.50
2023-03-16T03:10:18.073Z,1.50
2023-03-16T03:12:49.357Z,1.50
2023-03-16T03:15:17.094Z,1.50
2023-03-16T03:17:53.933Z,1.50
2023-03-16T03:20:21.614Z,1.50
2023-03-16T03:22:49.770Z,1.50
2023-03-16T03:25:17.293Z,1.60
2023-03-16T03:27:44.595Z,1.60
2023-03-16T03:30:22.033Z,1.60
2023-03-16T03:32:49.005Z,1.60
2023-03-16T03:35:18.107Z,1.60
2023-03-16T03:37:44.946Z,1.60
2023-03-16T03:40:14.805Z,1.60
2023-03-16T03:42:43.269Z,1.60
2023-03-16T03:45:14.572Z,1.60
2023-03-16T03:47:42.112Z,1.60
2023-03-16T03:50:13.632Z,1.60
2023-03-16T03:52:51.973Z,1.70
2023-03-16T03:55:19.856Z,1.70
2023-03-16T03:57:46.768Z,1.70
2023-03-16T04:00:14.601Z,1.80
2023-03-16T04:02:43.099Z,1.70
2023-03-16T04:05:27.399Z,1.70
2023-03-16T04:07:57.278Z,1.70
2023-03-16T04:10:28.163Z,1.80
2023-03-16T04:12:56.893Z,1.80
2023-03-16T04:15:24.013Z,1.80
2023-03-16T04:18:12.858Z,1.80
2023-03-16T04:20:40.934Z,1.80
2023-03-16T04:23:07.886Z,1.90
2023-03-16T04:25:38.646Z,1.80
2023-03-16T04:28:06.568Z,1.90
2023-03-16T04:30:35.420Z,1.90
2023-03-16T04:33:32.376Z,1.90
2023-03-16T04:36:00.604Z,1.80
2023-03-16T04:38:27.879Z,1.80
2023-03-16T04:40:57.422Z,1.80
2023-03-16T04:43:29.690Z,1.80
2023-03-16T04:46:03.627Z,1.80
2023-03-16T04:48:32.452Z,1.80
2023-03-16T04:51:01.507Z,1.80
2023-03-16T04:53:31.911Z,1.80
2023-03-16T04:56:04.064Z,1.80
2023-03-16T04:58:32.053Z,1.80
2023-03-16T05:01:01.151Z,1.80
2023-03-16T05:03:29.904Z,1.80
2023-03-16T05:05:57.155Z,1.80
2023-03-16T05:08:26.166Z,1.90
2023-03-16T05:10:57.974Z,1.80
2023-03-16T05:13:25.668Z,1.90
2023-03-16T05:15:56.394Z,1.90
2023-03-16T05:18:28.616Z,1.90
2023-03-16T05:20:56.444Z,1.90
2023-03-16T05:23:27.098Z,1.90
2023-03-16T05:26:02.752Z,1.90
2023-03-16T05:28:32.015Z,2.00
2023-03-16T05:31:04.431Z,1.90
2023-03-16T05:33:38.675Z,2.00
2023-03-16T05:36:09.610Z,2.00
2023-03-16T05:38:39.169Z,2.00
2023-03-16T05:41:08.484Z,2.00
2023-03-16T05:44:07.482Z,2.00
2023-03-16T05:46:54.997Z,2.10
2023-03-16T05:49:22.207Z,2.10
2023-03-16T05:51:50.533Z,2.20
2023-03-16T05:54:17.364Z,2.20
2023-03-16T05:56:46.101Z,2.20
2023-03-16T05:59:12.998Z,2.20
2023-03-16T06:01:40.294Z,2.30
2023-03-16T06:04:07.841Z,2.30
2023-03-16T06:06:39.147Z,2.30
2023-03-16T06:09:11.950Z,2.30
2023-03-16T06:11:38.790Z,2.40
2023-03-16T06:14:05.740Z,2.30
2023-03-16T06:16:32.616Z,2.30
2023-03-16T06:19:00.276Z,2.30
2023-03-16T06:21:29.241Z,2.40
2023-03-16T06:24:02.480Z,2.40
2023-03-16T06:26:29.698Z,2.40
2023-03-16T06:28:56.411Z,2.40
2023-03-16T06:31:23.413Z,2.40
2023-03-16T06:33:50.701Z,2.50
2023-03-16T06:36:17.823Z,2.50
2023-03-16T06:38:48.441Z,2.50
2023-03-16T06:41:23.211Z,2.50
2023-03-16T06:43:50.126Z,2.50
2023-03-16T06:46:17.164Z,2.50
2023-03-16T06:48:44.317Z,2.50
2023-03-16T06:51:11.121Z,2.60
2023-03-16T06:53:38.027Z,2.60
2023-03-16T06:56:05.940Z,2.60
2023-03-16T06:58:37.103Z,2.60
2023-03-16T07:01:04.550Z,2.60
2023-03-16T07:03:32.155Z,2.60
2023-03-16T07:06:06.131Z,2.60
2023-03-16T07:08:33.403Z,2.60
2023-03-16T07:11:01.465Z,2.70
2023-03-16T07:13:28.357Z,2.70
2023-03-16T07:15:55.260Z,2.70
2023-03-16T07:18:26.284Z,2.80
2023-03-16T07:20:54.768Z,2.90
2023-03-16T07:23:24.910Z,2.90
2023-03-16T07:25:53.670Z,2.90
2023-03-16T07:28:20.937Z,3.00
2023-03-16T07:31:03.268Z,3.00
2023-03-16T07:33:36.195Z,3.00
2023-03-16T07:36:10.690Z,3.00
2023-03-16T07:38:43.017Z,3.10
2023-03-16T07:41:11.462Z,3.10
2023-03-16T07:43:46.616Z,3.20
2023-03-16T07:46:18.572Z,3.20
2023-03-16T07:48:45.784Z,3.20
2023-03-16T07:51:16.890Z,3.30
2023-03-16T07:53:48.670Z,3.20
2023-03-16T07:56:23.997Z,3.30
2023-03-16T07:58:57.163Z,3.30
2023-03-16T08:01:28.531Z,3.30
2023-03-16T08:03:56.650Z,3.40
2023-03-16T08:06:25.581Z,3.40
2023-03-16T08:08:54.842Z,3.40
2023-03-16T08:11:31.631Z,3.50
2023-03-16T08:14:02.388Z,3.60
2023-03-16T08:16:49.333Z,3.60
2023-03-16T08:19:17.390Z,3.60
2023-03-16T08:22:00.360Z,3.70
2023-03-16T08:24:33.429Z,3.80
2023-03-16T08:27:30.820Z,3.80
2023-03-16T08:30:05.523Z,3.90
2023-03-16T08:32:36.852Z,3.90
2023-03-16T08:35:04.587Z,4.00
2023-03-16T08:37:39.310Z,4.00
2023-03-16T08:40:10.973Z,4.10
2023-03-16T08:42:40.985Z,4.10
2023-03-16T08:45:13.469Z,4.20
2023-03-16T08:47:42.623Z,4.30
2023-03-16T08:50:15.629Z,4.40
2023-03-16T08:52:42.807Z,4.50
2023-03-16T08:55:11.008Z,4.50
2023-03-16T08:57:42.253Z,4.60
2023-03-16T09:00:16.353Z,4.70
2023-03-16T09:02:45.743Z,4.80
2023-03-16T09:05:14.769Z,4.80
2023-03-16T09:07:42.353Z,4.90
2023-03-16T09:10:11.820Z,5.00
2023-03-16T09:12:39.181Z,5.00
2023-03-16T09:15:06.839Z,5.10
2023-03-16T09:17:34.726Z,5.20
2023-03-16T09:20:15.340Z,5.30
2023-03-16T09:22:47.048Z,5.40
2023-03-16T09:25:15.568Z,5.50
2023-03-16T09:27:42.723Z,5.50
2023-03-16T09:30:10.281Z,5.60
2023-03-16T09:32:37.506Z,5.70
2023-03-16T09:35:06.286Z,5.80
2023-03-16T09:37:44.783Z,5.90
2023-03-16T09:40:26.650Z,5.90
2023-03-16T09:43:12.217Z,6.00
2023-03-16T09:45:58.408Z,6.00
2023-03-16T09:48:27.126Z,6.10
2023-03-16T09:50:58.873Z,6.20
2023-03-16T09:53:30.898Z,6.30
2023-03-16T09:56:10.557Z,6.40
2023-03-16T09:58:40.829Z,6.40
2023-03-16T10:01:11.824Z,6.50
2023-03-16T10:04:00.722Z,6.50
2023-03-16T10:06:33.172Z,6.60
2023-03-16T10:09:21.412Z,6.60
2023-03-16T10:11:52.804Z,6.70
2023-03-16T10:14:20.115Z,6.80
2023-03-16T10:16:50.522Z,6.80
2023-03-16T10:19:18.070Z,6.90
2023-03-16T10:21:45.166Z,6.90
2023-03-16T10:24:40.826Z,6.90
2023-03-16T10:27:13.264Z,7.00
2023-03-16T10:29:40.207Z,7.00
2023-03-16T10:32:16.492Z,7.10
2023-03-16T10:34:48.214Z,7.10
2023-03-16T10:37:15.147Z,7.10
2023-03-16T10:39:43.036Z,7.10
2023-03-16T10:42:16.476Z,7.10
2023-03-16T10:44:43.578Z,7.20
2023-03-16T10:47:17.812Z,7.20
2023-03-16T10:49:49.042Z,7.30
2023-03-16T10:52:33.266Z,7.40
2023-03-16T10:55:18.819Z,7.60
2023-03-16T10:57:50.505Z,7.60
2023-03-16T11:00:22.856Z,7.60
2023-03-16T11:02:52.166Z,7.70
2023-03-16T11:05:18.996Z,7.80
2023-03-16T11:07:57.563Z,7.90
2023-03-16T11:10:36.165Z,7.90
2023-03-16T11:13:13.463Z,7.90
2023-03-16T11:16:00.496Z,7.90
2023-03-16T11:18:30.213Z,7.90
2023-03-16T11:20:58.759Z,7.90
2023-03-16T11:23:32.044Z,8.00
2023-03-16T11:26:02.003Z,8.10
2023-03-16T11:28:37.841Z,8.10
2023-03-16T11:31:11.953Z,8.20
2023-03-16T11:33:39.429Z,8.30
2023-03-16T11:36:09.646Z,8.40
2023-03-16T11:38:41.054Z,8.40
2023-03-16T11:41:37.441Z,8.50
2023-03-16T11:44:16.496Z,8.50
2023-03-16T11:46:55.393Z,8.50
2023-03-16T11:49:29.590Z,8.50
2023-03-16T11:52:26.559Z,8.50
2023-03-16T11:55:13.165Z,8.50
2023-03-16T11:57:46.533Z,8.60
2023-03-16T12:00:33.187Z,8.60
2023-03-16T12:03:10.153Z,8.60
2023-03-16T12:05:44.333Z,8.70
2023-03-16T12:08:31.802Z,8.70
2023-03-16T12:11:02.594Z,8.70
2023-03-16T12:13:33.175Z,8.70
2023-03-16T12:16:05.807Z,8.70
2023-03-16T12:18:38.664Z,8.70
2023-03-16T12:21:12.405Z,8.80
2023-03-16T12:23:54.324Z,8.80
2023-03-16T12:26:23.456Z,8.80
2023-03-16T12:28:51.961Z,8.70
2023-03-16T12:31:20.927Z,8.70
2023-03-16T12:33:52.986Z,8.80
2023-03-16T12:36:19.750Z,8.80
2023-03-16T12:38:51.058Z,8.80
2023-03-16T12:41:33.468Z,8.80
2023-03-16T12:44:10.065Z,8.80
2023-03-16T12:46:56.674Z,8.80
2023-03-16T12:49:24.961Z,8.70
2023-03-16T12:51:59.550Z,8.70
2023-03-16T12:54:26.525Z,8.70
2023-03-16T12:56:59.677Z,8.60
2023-03-16T12:59:36.336Z,8.70
2023-03-16T13:02:06.863Z,8.70
2023-03-16T13:04:35.420Z,8.70
2023-03-16T13:07:05.167Z,8.70
2023-03-16T13:09:35.309Z,8.80
2023-03-16T13:12:05.103Z,8.80
2023-03-16T13:14:35.080Z,8.80
2023-03-16T13:17:06.767Z,8.80
2023-03-16T13:19:37.901Z,8.80
2023-03-16T13:22:26.194Z,8.80
2023-03-16T13:24:54.677Z,8.80
2023-03-16T13:27:24.197Z,8.70
2023-03-16T13:29:55.582Z,8.80
2023-03-16T13:32:22.723Z,8.80
2023-03-16T13:34:50.736Z,8.70
2023-03-16T13:37:19.780Z,8.70
2023-03-16T13:40:00.047Z,8.70
2023-03-16T13:42:29.598Z,8.70
2023-03-16T13:44:57.764Z,8.70
2023-03-16T13:47:26.696Z,8.60
2023-03-16T13:49:58.384Z,8.60
2023-03-16T13:52:27.910Z,8.60
2023-03-16T13:54:56.434Z,8.60
2023-03-16T13:57:25.139Z,8.60
2023-03-16T13:59:59.127Z,8.60
2023-03-16T14:02:26.092Z,8.60
2023-03-16T14:04:53.330Z,8.60
2023-03-16T14:07:21.434Z,8.60
2023-03-16T14:09:49.957Z,8.60
2023-03-16T14:12:18.379Z,8.60
2023-03-16T14:14:50.305Z,8.50
2023-03-16T14:17:18.695Z,8.50
2023-03-16T14:19:47.582Z,8.50
2023-03-16T14:22:16.794Z,8.50
2023-03-16T14:24:44.762Z,8.50
2023-03-16T14:27:18.006Z,8.60
2023-03-16T14:29:45.562Z,8.60
2023-03-16T14:32:27.123Z,8.60
2023-03-16T14:34:54.379Z,8.70
2023-03-16T14:37:21.215Z,8.70
2023-03-16T14:39:58.100Z,8.80
2023-03-16T14:42:29.656Z,8.80
2023-03-16T14:44:57.656Z,8.80
2023-03-16T14:47:29.374Z,8.80
2023-03-16T14:49:57.426Z,8.80
2023-03-16T14:52:31.683Z,8.80
2023-03-16T14:55:02.324Z,8.80
2023-03-16T14:57:30.786Z,8.80
2023-03-16T14:59:57.524Z,8.80
2023-03-16T15:02:24.980Z,8.80
2023-03-16T15:04:51.860Z,8.80
2023-03-16T15:07:20.191Z,8.70
2023-03-16T15:09:49.548Z,8.70
2023-03-16T15:12:18.327Z,8.70
2023-03-16T15:15:05.204Z,8.70
2023-03-16T15:17:32.753Z,8.70
2023-03-16T15:19:59.834Z,8.70
2023-03-16T15:22:31.044Z,8.70
2023-03-16T15:24:58.908Z,8.60
2023-03-16T15:27:29.137Z,8.70
2023-03-16T15:29:59.768Z,8.60
2023-03-16T15:32:27.209Z,8.60
2023-03-16T15:34:54.038Z,8.60
2023-03-16T15:37:23.251Z,8.60
2023-03-16T15:39:49.980Z,8.60
2023-03-16T15:42:18.232Z,8.60
2023-03-16T15:44:45.980Z,8.60
2023-03-16T15:47:13.127Z,8.60
2023-03-16T15:49:47.176Z,8.60
2023-03-16T15:52:26.708Z,8.60
2023-03-16T15:54:53.647Z,8.50
2023-03-16T15:57:21.104Z,8.50
2023-03-16T15:59:54.685Z,8.50
2023-03-16T16:02:25.546Z,8.50
2023-03-16T16:04:56.110Z,8.50
2023-03-16T16:07:23.158Z,8.50
2023-03-16T16:09:53.064Z,8.50
2023-03-16T16:12:23.369Z,8.50
2023-03-16T16:15:25.804Z,8.50
2023-03-16T16:18:19.386Z,8.50
2023-03-16T16:20:42.742Z,8.40
2023-03-16T16:23:10.667Z,8.40
2023-03-16T16:25:40.359Z,8.40
2023-03-16T16:28:24.566Z,8.40
2023-03-16T16:30:51.422Z,8.40
2023-03-16T16:33:32.305Z,8.40
2023-03-16T16:36:03.664Z,8.30
2023-03-16T16:38:34.192Z,8.30
2023-03-16T16:41:02.085Z,8.30
2023-03-16T16:43:48.064Z,8.30
2023-03-16T16:46:17.382Z,8.30
2023-03-16T16:48:46.497Z,8.30
2023-03-16T16:51:18.235Z,8.30
2023-03-16T16:53:46.851Z,8.30
2023-03-16T16:56:15.461Z,8.30
2023-03-16T16:58:42.722Z,8.30
2023-03-16T17:01:13.741Z,8.30
2023-03-16T17:03:40.700Z,8.20
2023-03-16T17:06:10.545Z,8.20
2023-03-16T17:08:38.129Z,8.20
2023-03-16T17:11:05.223Z,8.20
2023-03-16T17:13:41.172Z,8.10
2023-03-16T17:16:15.397Z,8.10
2023-03-16T17:18:44.129Z,8.10
2023-03-16T17:21:16.475Z,8.00
2023-03-16T17:23:43.473Z,8.00
2023-03-16T17:26:19.151Z,8.00
2023-03-16T17:28:53.591Z,8.00
2023-03-16T17:31:22.475Z,7.90
2023-03-16T17:33:51.179Z,7.90
2023-03-16T17:36:19.118Z,7.90
2023-03-16T17:38:46.136Z,8.00
2023-03-16T17:41:20.241Z,7.90
2023-03-16T17:43:54.868Z,8.00
2023-03-16T17:46:23.928Z,7.90
2023-03-16T17:48:52.749Z,7.90
2023-03-16T17:51:21.298Z,7.90
2023-03-16T17:53:48.432Z,7.90
2023-03-16T17:56:15.328Z,7.90
2023-03-16T17:58:43.253Z,7.90
2023-03-16T18:01:10.788Z,7.90
2023-03-16T18:03:38.182Z,7.80
2023-03-16T18:06:05.394Z,7.80
2023-03-16T18:08:34.171Z,7.80
2023-03-16T18:11:02.872Z,7.80
2023-03-16T18:13:34.736Z,7.80
2023-03-16T18:16:02.823Z,7.70
2023-03-16T18:18:30.689Z,7.70
2023-03-16T18:20:59.754Z,7.70
2023-03-16T18:23:28.177Z,7.70
2023-03-16T18:25:55.984Z,7.70
2023-03-16T18:28:23.449Z,7.60
2023-03-16T18:30:54.368Z,7.60
2023-03-16T18:33:23.695Z,7.60
2023-03-16T18:35:54.001Z,7.60
2023-03-16T18:38:27.783Z,7.60
2023-03-16T18:40:54.939Z,7.60
2023-03-16T18:43:21.915Z,7.50
2023-03-16T18:45:48.735Z,7.50
2023-03-16T18:48:38.657Z,7.60
2023-03-16T18:51:10.127Z,7.60
2023-03-16T18:53:36.991Z,7.60
2023-03-16T18:56:04.362Z,7.50
2023-03-16T18:58:31.333Z,7.50
2023-03-16T19:01:00.995Z,7.50
2023-03-16T19:03:33.367Z,7.50
2023-03-16T19:06:02.496Z,7.50
2023-03-16T19:08:29.629Z,7.50
2023-03-16T19:11:01.377Z,7.50
2023-03-16T19:13:28.472Z,7.40
2023-03-16T19:15:57.983Z,7.40
2023-03-16T19:18:26.170Z,7.40
2023-03-16T19:20:54.088Z,7.40
2023-03-16T19:23:35.313Z,7.40
2023-03-16T19:26:02.921Z,7.40
2023-03-16T19:28:34.343Z,7.50
2023-03-16T19:31:02.031Z,7.50
2023-03-16T19:33:29.103Z,7.40
2023-03-16T19:35:57.635Z,7.50
2023-03-16T19:38:27.434Z,7.40
2023-03-16T19:40:58.817Z,7.40
2023-03-16T19:43:26.526Z,7.40
2023-03-16T19:45:56.378Z,7.40
2023-03-16T19:48:33.226Z,7.40
2023-03-16T19:51:04.513Z,7.40
2023-03-16T19:53:41.386Z,7.40
2023-03-16T19:56:19.550Z,7.30
2023-03-16T19:58:47.528Z,7.30
2023-03-16T20:01:32.316Z,7.30
2023-03-16T20:04:04.434Z,7.40
2023-03-16T20:06:34.663Z,7.30
2023-03-16T20:09:08.201Z,7.20
2023-03-16T20:11:35.409Z,7.20
2023-03-16T20:14:03.553Z,7.20
2023-03-16T20:16:36.817Z,7.30
2023-03-16T20:19:13.634Z,7.30
2023-03-16T20:21:40.591Z,7.30
2023-03-16T20:24:18.158Z,7.30
2023-03-16T20:26:49.106Z,7.30
2023-03-16T20:29:30.503Z,7.30
2023-03-16T20:31:57.917Z,7.30
2023-03-16T20:34:28.173Z,7.30
2023-03-16T20:36:55.998Z,7.30
2023-03-16T20:39:23.039Z,7.30
2023-03-16T20:41:50.544Z,7.30
2023-03-16T20:44:18.540Z,7.20
2023-03-16T20:46:47.990Z,7.20
2023-03-16T20:49:28.672Z,7.20
2023-03-16T20:52:04.962Z,7.20
2023-03-16T20:54:43.259Z,7.20
2023-03-16T20:57:17.389Z,7.10
2023-03-16T20:59:48.830Z,7.10
2023-03-16T21:02:29.748Z,7.10
2023-03-16T21:04:58.761Z,7.10
2023-03-16T21:07:25.969Z,7.10
2023-03-16T21:09:53.143Z,7.10
2023-03-16T21:12:23.502Z,7.00
2023-03-16T21:14:50.489Z,7.10
2023-03-16T21:17:26.524Z,7.00
2023-03-16T21:19:55.810Z,7.00
2023-03-16T21:22:30.178Z,7.00
2023-03-16T21:24:59.826Z,7.00
2023-03-16T21:27:28.063Z,7.00
2023-03-16T21:29:55.581Z,7.00
2023-03-16T21:32:37.577Z,7.00
2023-03-16T21:35:04.591Z,7.00
2023-03-16T21:37:31.510Z,7.00
2023-03-16T21:40:00.148Z,7.00
2023-03-16T21:42:28.063Z,7.00
2023-03-16T21:44:54.994Z,6.90
2023-03-16T21:47:25.744Z,7.00
2023-03-16T21:49:53.739Z,6.90
2023-03-16T21:52:23.736Z,6.90
2023-03-16T21:54:52.191Z,6.90
2023-03-16T21:57:19.826Z,6.90
2023-03-16T21:59:47.152Z,6.90
2023-03-16T22:02:24.504Z,6.90
2023-03-16T22:05:36.222Z,6.90
2023-03-16T22:08:11.305Z,6.90
2023-03-16T22:10:42.001Z,6.90
2023-03-16T22:13:12.834Z,6.90
2023-03-16T22:15:44.417Z,6.80
2023-03-16T22:18:50.658Z,6.80
2023-03-16T22:21:27.302Z,6.90
2023-03-16T22:23:55.286Z,6.90
2023-03-16T22:26:35.111Z,6.90
2023-03-16T22:29:24.496Z,6.90
2023-03-16T22:32:10.196Z,6.90
2023-03-16T22:34:43.224Z,6.90
2023-03-16T22:37:27.058Z,6.90
2023-03-16T22:39:54.443Z,6.90
2023-03-16T22:42:45.812Z,6.80
2023-03-16T22:45:19.030Z,6.80
2023-03-16T22:47:47.930Z,6.80
2023-03-16T22:50:38.894Z,6.80
2023-03-16T22:53:10.282Z,6.80
2023-03-16T22:55:45.607Z,6.80
2023-03-16T22:58:35.817Z,6.80
2023-03-16T23:01:27.636Z,6.70
2023-03-16T23:04:01.478Z,6.80
2023-03-16T23:06:42.897Z,6.70
2023-03-16T23:09:16.786Z,6.70
2023-03-16T23:12:02.331Z,6.70
2023-03-16T23:14:51.468Z,6.80
2023-03-16T23:17:28.153Z,6.70
2023-03-16T23:20:00.794Z,6.70
2023-03-16T23:22:33.390Z,6.60
2023-03-16T23:25:13.646Z,6.60
2023-03-16T23:27:46.016Z,6.60
2023-03-16T23:30:19.734Z,6.70
2023-03-16T23:32:53.139Z,6.70
2023-03-16T23:35:23.210Z,6.70
2023-03-16T23:37:51.085Z,6.70
2023-03-16T23:40:21.588Z,6.60
2023-03-16T23:42:50.630Z,6.60
2023-03-16T23:45:28.682Z,6.60
2023-03-16T23:48:02.453Z,6.60
2023-03-16T23:50:40.952Z,6.60
2023-03-16T23:53:14.299Z,6.60
2023-03-16T23:55:53.904Z,6.60
2023-03-16T23:58:38.830Z,6.60
